Windcrest — WDD3567 — position and weather

sailwx.info

Track history (hours):
 
Tides and Currents Weather Stations Pressure Air Temp Water Temp Dewpoint Dewpoint Depression Visibility Wind Speed Wind Dir Waves Ship Positions

Windcrest

Owner: Cromwell, LLC, Newport, RI. More information available from US FCC via Universal Licensing System and Coast Guard Vessel Documentation Center.

Last reported at 2017-Oct-19 11:13 UTC. Time now 2017-Oct-19 15:15 UTC.
Position N 26°45' W 080°03'.

Length 30 m; draft 2.7 m.

Type: Sailing vessel. MMSI: 367133230.

Date/timePositionNaut miles runAvg speedWind from/ knotsBaromVisibWave heightAir tempDewpointWater temp
2017-Oct-19 11:13N 26°45' W 080°03'0 0.0
2017-Oct-19 10:55N 26°45' W 080°03'0 0.0
2017-Oct-19 09:43N 26°45' W 080°03'0 0.0
2017-Oct-19 07:16N 26°45' W 080°03'0 0.0
2017-Oct-18 12:48N 26°45' W 080°03'0 0.0
2017-Oct-18 12:29N 26°45' W 080°03'0 0.0
2017-Oct-18 11:43N 26°45' W 080°03'0 0.0
2017-Oct-18 11:24N 26°45' W 080°03'0 0.0
2017-Oct-18 10:17N 26°45' W 080°03'0 0.0
2017-Oct-18 09:39N 26°45' W 080°03'0 0.1
2017-Oct-18 09:29N 26°45' W 080°03'0 0.0
2017-Oct-18 09:00N 26°45' W 080°03'0 0.0
2017-Oct-18 08:30N 26°45' W 080°03'0 0.0
2017-Oct-18 08:00N 26°45' W 080°03'0 0.0
2017-Oct-18 07:30N 26°45' W 080°03'0 0.0
2017-Oct-18 06:57N 26°45' W 080°03'0 0.0
2017-Oct-17 14:38N 26°45' W 080°03'0 0.0
2017-Oct-17 14:30N 26°45' W 080°03'0 0.0
2017-Oct-17 14:00N 26°45' W 080°03'0 0.0
2017-Oct-17 13:30N 26°45' W 080°03'0 0.0
2017-Oct-17 13:01N 26°45' W 080°03'0 0.0
2017-Oct-17 12:29N 26°45' W 080°03'0 0.0
2017-Oct-16 11:39N 26°45' W 080°03'0 2.7
2017-Oct-16 11:30N 26°45' W 080°03'3 5.2
2017-Oct-16 11:00N 26°47' W 080°01'4 8.1
2017-Oct-16 10:30N 26°51' W 080°01'4 8.4
2017-Oct-16 10:00N 26°55' W 080°02'4 8.4
2017-Oct-16 09:30N 26°59' W 080°03'4 8.3
2017-Oct-16 09:00N 27°04' W 080°03'4 8.2
2017-Oct-16 08:30N 27°08' W 080°04'294 8.6
2017-Oct-14 22:21N 32°02' W 079°58'235 4.8
2017-Oct-12 21:55N 34°31' W 076°22'448 8.8
2017-Oct-10 18:54N 41°08' W 071°60'4 9.5
2017-Oct-10 18:30N 41°09' W 072°05'6 8.7
2017-Oct-10 17:50N 41°10' W 072°12'3 9.4
2017-Oct-10 17:30N 41°11' W 072°16'3 7.0
2017-Oct-10 17:00N 41°10' W 072°21'4 7.6
2017-Oct-10 16:30N 41°08' W 072°25'4 8.2
2017-Oct-10 16:00N 41°06' W 072°30'4 8.2
2017-Oct-10 15:30N 41°04' W 072°35'  
Track history (hours):
 
Tides and Currents Weather Stations Pressure Air Temp Water Temp Dewpoint Dewpoint Depression Visibility Wind Speed Wind Dir Waves Ship Positions

Windcrest

Owner: Cromwell, LLC, Newport, RI. More information available from US FCC via Universal Licensing System and Coast Guard Vessel Documentation Center.

Last reported at 2017-Oct-19 11:13 UTC. Time now 2017-Oct-19 15:15 UTC.
Position N 26°45' W 080°03'.

Length 30 m; draft 2.7 m.

Type: Sailing vessel. MMSI: 367133230.

Date/timePositionNaut miles runAvg speedWind from/ knotsBaromVisibWave heightAir tempDewpointWater temp
2017-Oct-19 11:13N 26°45' W 080°03'0 0.0
2017-Oct-19 10:55N 26°45' W 080°03'0 0.0
2017-Oct-19 09:43N 26°45' W 080°03'0 0.0
2017-Oct-19 07:16N 26°45' W 080°03'0 0.0
2017-Oct-18 12:48N 26°45' W 080°03'0 0.0
2017-Oct-18 12:29N 26°45' W 080°03'0 0.0
2017-Oct-18 11:43N 26°45' W 080°03'0 0.0
2017-Oct-18 11:24N 26°45' W 080°03'0 0.0
2017-Oct-18 10:17N 26°45' W 080°03'0 0.0
2017-Oct-18 09:39N 26°45' W 080°03'0 0.1
2017-Oct-18 09:29N 26°45' W 080°03'0 0.0
2017-Oct-18 09:00N 26°45' W 080°03'0 0.0
2017-Oct-18 08:30N 26°45' W 080°03'0 0.0
2017-Oct-18 08:00N 26°45' W 080°03'0 0.0
2017-Oct-18 07:30N 26°45' W 080°03'0 0.0
2017-Oct-18 06:57N 26°45' W 080°03'0 0.0
2017-Oct-17 14:38N 26°45' W 080°03'0 0.0
2017-Oct-17 14:30N 26°45' W 080°03'0 0.0
2017-Oct-17 14:00N 26°45' W 080°03'0 0.0
2017-Oct-17 13:30N 26°45' W 080°03'0 0.0
2017-Oct-17 13:01N 26°45' W 080°03'0 0.0
2017-Oct-17 12:29N 26°45' W 080°03'0 0.0
2017-Oct-16 11:39N 26°45' W 080°03'0 2.7
2017-Oct-16 11:30N 26°45' W 080°03'3 5.2
2017-Oct-16 11:00N 26°47' W 080°01'4 8.1
2017-Oct-16 10:30N 26°51' W 080°01'4 8.4
2017-Oct-16 10:00N 26°55' W 080°02'4 8.4
2017-Oct-16 09:30N 26°59' W 080°03'4 8.3
2017-Oct-16 09:00N 27°04' W 080°03'4 8.2
2017-Oct-16 08:30N 27°08' W 080°04'294 8.6
2017-Oct-14 22:21N 32°02' W 079°58'235 4.8
2017-Oct-12 21:55N 34°31' W 076°22'448 8.8
2017-Oct-10 18:54N 41°08' W 071°60'4 9.5
2017-Oct-10 18:30N 41°09' W 072°05'6 8.7
2017-Oct-10 17:50N 41°10' W 072°12'3 9.4
2017-Oct-10 17:30N 41°11' W 072°16'3 7.0
2017-Oct-10 17:00N 41°10' W 072°21'4 7.6
2017-Oct-10 16:30N 41°08' W 072°25'4 8.2
2017-Oct-10 16:00N 41°06' W 072°30'4 8.2
2017-Oct-10 15:30N 41°04' W 072°35'  

Dump ship's entire track history